Time;durP1;ratioP1;P1;durP2;ratioP2;P2;SDS_P1;SDS_P2;PMS_P1;PMS_P2;Temp;Humidity;BMP_temperature;BMP_pressure;BME280_temperature;BME280_humidity;BME280_pressure;Samples;Min_cycle;Max_cycle;Signal;HPM_P1;HPM_P2
2022/09/02 00:02:11;;;;;;;7.20;4.25;;;;;;;17.51;50.33;101476.81;6156488;23;20019;-69
2022/09/02 00:04:36;;;;;;;8.77;4.80;;;;;;;17.47;50.09;101467.50;6185163;23;20423;-69
2022/09/02 00:07:02;;;;;;;12.57;5.90;;;;;;;17.39;50.74;101463.28;6185280;23;20012;-70
2022/09/02 00:09:27;;;;;;;9.45;3.90;;;;;;;17.38;50.49;101458.06;6185671;23;20020;-69
2022/09/02 00:11:54;;;;;;;6.65;2.80;;;;;;;17.35;50.83;101467.63;6159100;23;20005;-69
2022/09/02 00:14:25;;;;;;;5.70;2.20;;;;;;;17.28;50.57;101450.56;6183858;23;20379;-69
2022/09/02 00:16:51;;;;;;;6.20;1.50;;;;;;;17.29;51.08;101457.69;6184944;23;20016;-69
2022/09/02 00:19:19;;;;;;;6.18;1.90;;;;;;;17.23;51.36;101458.72;6159196;23;20319;-70
2022/09/02 00:21:45;;;;;;;5.18;1.67;;;;;;;17.19;51.38;101461.13;6185429;23;20086;-69
2022/09/02 00:24:10;;;;;;;5.07;2.00;;;;;;;17.16;51.01;101461.63;6185053;23;20005;-69
2022/09/02 00:26:36;;;;;;;4.97;1.90;;;;;;;17.13;51.76;101453.94;6185419;23;20012;-70
2022/09/02 00:29:03;;;;;;;4.50;1.95;;;;;;;17.18;51.46;101456.72;6159036;23;19997;-70
2022/09/02 00:31:28;;;;;;;6.30;1.70;;;;;;;17.12;51.91;101442.19;6158831;23;20011;-69
2022/09/02 00:33:54;;;;;;;4.57;1.80;;;;;;;17.10;51.62;101449.78;6159249;23;20383;-69
2022/09/02 00:36:19;;;;;;;3.33;1.88;;;;;;;17.08;51.62;101451.97;6184832;23;20008;-69
2022/09/02 00:38:45;;;;;;;4.55;1.50;;;;;;;17.02;51.57;101446.72;6185620;23;20323;-69
2022/09/02 00:41:11;;;;;;;8.85;1.73;;;;;;;16.98;51.83;101443.63;6184970;23;20427;-69
2022/09/02 00:43:38;;;;;;;5.40;1.98;;;;;;;16.96;51.98;101443.06;6185194;23;20008;-70
2022/09/02 00:46:05;;;;;;;4.13;1.70;;;;;;;16.90;52.35;101444.09;6184376;23;20005;-69
2022/09/02 00:48:31;;;;;;;9.55;1.90;;;;;;;16.95;51.78;101441.41;6185261;23;20008;-69
2022/09/02 00:50:56;;;;;;;5.55;2.05;;;;;;;16.91;52.09;101440.25;6184743;23;20367;-69
2022/09/02 00:53:22;;;;;;;5.53;1.80;;;;;;;16.95;52.20;101441.41;6159134;23;20063;-70
2022/09/02 00:55:49;;;;;;;4.75;1.50;;;;;;;16.93;51.80;101443.56;6185470;23;20001;-69
2022/09/02 00:58:21;;;;;;;5.10;1.50;;;;;;;16.82;52.84;101432.47;6184661;23;20035;-70
2022/09/02 01:00:47;;;;;;;;;;;;;;;17.04;50.86;101437.16;6182630;23;19997;-70
2022/09/02 01:03:18;;;;;;;4.88;1.67;;;;;;;16.82;52.05;101432.47;6184726;23;19908;-70
2022/09/02 01:05:47;;;;;;;8.18;2.10;;;;;;;16.83;52.36;101439.59;6159131;23;20088;-69
2022/09/02 01:08:19;;;;;;;3.17;1.92;;;;;;;16.84;52.24;101430.28;6184383;23;20005;-70
2022/09/02 01:10:46;;;;;;;5.82;2.00;;;;;;;16.78;52.84;101425.03;6183808;23;20009;-69
2022/09/02 01:13:17;;;;;;;5.05;1.60;;;;;;;16.75;52.76;101426.34;6158645;23;20071;-69
2022/09/02 01:15:46;;;;;;;4.80;2.00;;;;;;;16.70;52.66;101430.91;6184087;23;20001;-69
2022/09/02 01:18:17;;;;;;;6.57;1.70;;;;;;;16.69;53.02;101432.81;6184485;23;20024;-69
2022/09/02 01:20:42;;;;;;;4.10;1.77;;;;;;;16.72;52.98;101429.59;6158497;23;20789;-69
2022/09/02 01:23:09;;;;;;;3.22;1.88;;;;;;;16.69;52.76;101421.09;6183722;23;20033;-69
2022/09/02 01:25:34;;;;;;;3.65;1.90;;;;;;;16.68;52.82;101425.69;6184810;23;20036;-70
2022/09/02 01:28:06;;;;;;;5.13;1.80;;;;;;;16.63;53.46;101423.72;6184515;23;20013;-70
2022/09/02 01:30:33;;;;;;;5.53;1.90;;;;;;;16.66;53.22;101416.94;6184706;23;20011;-70
2022/09/02 01:32:58;;;;;;;6.55;2.10;;;;;;;16.60;53.51;101423.41;6183583;23;20409;-69
2022/09/02 01:35:24;;;;;;;7.57;1.90;;;;;;;16.63;53.06;101428.38;6184472;23;20001;-69
2022/09/02 01:37:54;;;;;;;4.22;1.98;;;;;;;16.53;53.24;101423.59;6184334;23;20001;-70
2022/09/02 01:40:20;;;;;;;3.85;1.80;;;;;;;16.53;53.55;101418.13;6183890;23;20016;-69
2022/09/02 01:42:46;;;;;;;9.57;2.10;;;;;;;16.52;53.49;101415.66;6158383;23;20043;-69
2022/09/02 01:45:12;;;;;;;4.75;1.88;;;;;;;16.46;54.09;101412.84;6184792;23;20009;-68
2022/09/02 01:47:37;;;;;;;6.93;1.90;;;;;;;16.36;54.40;101409.94;6184685;23;20001;-69
2022/09/02 01:50:07;;;;;;;2.75;1.90;;;;;;;16.38;53.57;101420.63;6184470;23;20012;-69
2022/09/02 01:52:32;;;;;;;4.47;1.60;;;;;;;16.42;53.71;101405.41;6184562;23;20005;-70
2022/09/02 01:54:58;;;;;;;2.92;1.65;;;;;;;16.39;54.13;101406.72;6184999;23;20001;-69
2022/09/02 01:57:23;;;;;;;6.20;2.28;;;;;;;16.37;53.88;101403.41;6183492;23;20015;-69
2022/09/02 01:59:52;;;;;;;2.58;1.75;;;;;;;16.34;53.99;101411.28;6184976;23;20430;-69
2022/09/02 02:02:19;;;;;;;4.57;1.85;;;;;;;16.34;54.31;101414.84;6154729;23;20009;-70
2022/09/02 02:04:46;;;;;;;3.33;1.80;;;;;;;16.20;54.82;101408.06;6184823;23;20008;-70
2022/09/02 02:07:17;;;;;;;6.50;2.05;;;;;;;16.25;54.35;101414.44;6183522;23;20005;-69
2022/09/02 02:09:42;;;;;;;4.88;2.08;;;;;;;16.27;54.01;101414.19;6157926;23;20323;-70
2022/09/02 02:12:08;;;;;;;8.13;1.95;;;;;;;16.27;54.53;101414.19;6183564;23;20008;-70
2022/09/02 02:14:34;;;;;;;3.75;2.00;;;;;;;16.21;54.58;101415.19;6184475;23;20083;-70
2022/09/02 02:16:59;;;;;;;4.97;2.38;;;;;;;16.12;54.60;101414.75;6184366;23;20411;-70
2022/09/02 02:19:25;;;;;;;5.57;2.00;;;;;;;16.16;54.95;101407.75;6157530;23;20096;-69
2022/09/02 02:21:51;;;;;;;3.67;1.83;;;;;;;16.18;54.90;101410.22;6184824;23;20009;-69
2022/09/02 02:24:17;;;;;;;6.22;2.22;;;;;;;16.16;54.78;101405.00;6184389;23;20005;-69
2022/09/02 02:26:42;;;;;;;6.35;2.10;;;;;;;16.12;55.02;101410.16;6183814;23;20001;-71
2022/09/02 02:29:07;;;;;;;6.45;2.45;;;;;;;16.19;54.39;101404.50;6183765;23;20017;-70
2022/09/02 02:31:33;;;;;;;7.65;2.10;;;;;;;16.21;54.56;101405.06;6184469;23;20036;-69
2022/09/02 02:33:59;;;;;;;8.23;2.17;;;;;;;16.19;54.81;101407.25;6157972;23;20012;-69
2022/09/02 02:36:24;;;;;;;6.22;2.20;;;;;;;16.20;54.48;101405.31;6183987;23;20020;-69
2022/09/02 02:38:50;;;;;;;4.63;2.13;;;;;;;16.15;54.70;101399.78;6183841;23;20005;-70
2022/09/02 02:41:15;;;;;;;3.38;2.30;;;;;;;16.10;55.04;101400.53;6184050;23;20013;-70
2022/09/02 02:43:41;;;;;;;4.25;2.20;;;;;;;16.10;55.19;101404.09;6184572;23;20005;-69
2022/09/02 02:46:07;;;;;;;5.03;2.40;;;;;;;16.10;55.23;101392.34;6183972;23;20009;-69
2022/09/02 02:48:34;;;;;;;5.88;2.30;;;;;;;16.07;54.63;101396.41;6183853;23;20005;-69
2022/09/02 02:51:00;;;;;;;2.90;2.10;;;;;;;16.04;55.56;101396.06;6184706;23;20005;-69
2022/09/02 02:53:28;;;;;;;5.43;2.30;;;;;;;16.07;54.84;101393.66;6157957;23;20028;-70
2022/09/02 02:55:54;;;;;;;7.50;2.30;;;;;;;15.98;55.47;101394.34;6184120;23;20080;-69
2022/09/02 02:58:19;;;;;;;4.25;2.40;;;;;;;15.91;55.44;101398.06;6183584;23;20020;-69
2022/09/02 03:00:45;;;;;;;8.23;2.35;;;;;;;15.89;55.44;101391.19;6155373;23;20012;-69
2022/09/02 03:03:11;;;;;;;5.97;2.13;;;;;;;15.91;55.50;101389.88;6157548;23;20403;-69
2022/09/02 03:05:37;;;;;;;10.35;2.50;;;;;;;15.92;55.46;101391.50;6184096;23;20005;-69
2022/09/02 03:08:05;;;;;;;6.18;2.10;;;;;;;15.91;55.61;101391.75;6184223;23;20339;-69
2022/09/02 03:10:31;;;;;;;4.55;2.30;;;;;;;15.92;55.65;101396.97;6184291;23;20024;-69
2022/09/02 03:13:00;;;;;;;8.07;2.30;;;;;;;15.94;55.66;101388.53;6183944;23;20020;-69
2022/09/02 03:15:27;;;;;;;6.13;2.03;;;;;;;15.92;55.63;101385.25;6157527;23;20009;-69
2022/09/02 03:17:54;;;;;;;7.18;2.22;;;;;;;15.86;55.40;101387.03;6184092;23;20139;-69
2022/09/02 03:20:20;;;;;;;5.05;1.98;;;;;;;15.86;55.76;101386.22;6157972;23;20040;-69
2022/09/02 03:22:47;;;;;;;4.20;2.08;;;;;;;15.88;55.35;101387.66;6184136;23;20005;-70
2022/09/02 03:25:15;;;;;;;5.97;2.45;;;;;;;15.87;55.87;101387.91;6181769;23;20032;-69
2022/09/02 03:27:44;;;;;;;4.72;2.25;;;;;;;15.87;55.67;101385.16;6184196;23;20017;-70
2022/09/02 03:30:12;;;;;;;6.00;2.50;;;;;;;15.88;55.89;101389.53;6184301;23;20036;-69
2022/09/02 03:32:37;;;;;;;4.97;2.33;;;;;;;15.89;55.71;101380.28;6184009;23;20475;-69
2022/09/02 03:35:06;;;;;;;5.72;2.45;;;;;;;15.85;56.06;101379.97;6183643;23;20032;-70
2022/09/02 03:37:32;;;;;;;3.35;2.25;;;;;;;15.77;55.67;101378.44;6183970;23;20035;-69
2022/09/02 03:40:00;;;;;;;5.43;2.50;;;;;;;15.80;55.97;101381.75;6185972;23;20052;-69
2022/09/02 03:42:25;;;;;;;7.13;2.50;;;;;;;15.74;56.17;101370.72;6185429;23;20055;-70
2022/09/02 03:44:50;;;;;;;7.28;2.63;;;;;;;15.71;56.15;101368.47;6185184;23;20017;-69
2022/09/02 03:47:19;;;;;;;5.13;2.50;;;;;;;15.73;56.28;101370.97;6185797;23;20060;-69
2022/09/02 03:49:44;;;;;;;10.60;2.90;;;;;;;15.67;56.54;101369.22;6186201;23;20438;-70
2022/09/02 03:52:10;;;;;;;12.02;3.10;;;;;;;15.70;56.54;101371.44;6185543;23;20072;-69
2022/09/02 03:54:35;;;;;;;9.60;2.88;;;;;;;15.65;56.35;101360.47;6185372;23;20087;-69
2022/09/02 03:57:00;;;;;;;15.85;3.10;;;;;;;15.65;56.47;101357.75;6186021;23;20012;-69
2022/09/02 03:59:25;;;;;;;21.27;2.80;;;;;;;15.60;56.59;101356.56;6185373;23;20336;-69
2022/09/02 04:01:51;;;;;;;13.13;3.05;;;;;;;15.57;56.87;101362.50;6183142;23;20008;-69
2022/09/02 04:04:18;;;;;;;5.00;2.85;;;;;;;15.56;56.82;101362.75;6185274;23;20008;-70
2022/09/02 04:06:43;;;;;;;13.25;3.05;;;;;;;15.51;56.64;101366.22;6184459;23;20009;-69
2022/09/02 04:09:08;;;;;;;15.25;3.38;;;;;;;15.48;57.38;101358.53;6185128;23;20035;-70
2022/09/02 04:11:34;;;;;;;10.93;3.08;;;;;;;15.46;57.19;101359.84;6185646;23;20365;-69
2022/09/02 04:13:59;;;;;;;11.35;3.20;;;;;;;15.46;57.19;101357.97;6185391;23;20005;-69
2022/09/02 04:16:27;;;;;;;12.60;2.95;;;;;;;15.48;57.39;101363.19;6185172;23;20009;-69
2022/09/02 04:18:55;;;;;;;10.45;3.00;;;;;;;15.47;57.32;101362.34;6185878;23;20020;-70
2022/09/02 04:21:21;;;;;;;6.28;2.92;;;;;;;15.39;57.46;101354.56;6185612;23;20009;-69
2022/09/02 04:23:46;;;;;;;9.75;3.33;;;;;;;15.38;57.70;101352.91;6158945;23;20087;-70
2022/09/02 04:26:14;;;;;;;8.63;3.55;;;;;;;15.34;57.63;101358.03;6158652;23;20331;-69
2022/09/02 04:28:39;;;;;;;13.07;4.60;;;;;;;15.33;57.55;101353.63;6185782;23;20008;-69
2022/09/02 04:31:07;;;;;;;11.50;3.72;;;;;;;15.34;57.41;101352.56;6185779;23;20009;-69
2022/09/02 04:33:33;;;;;;;15.75;4.00;;;;;;;15.36;57.70;101349.59;6185016;23;20013;-70
2022/09/02 04:35:58;;;;;;;18.00;3.88;;;;;;;15.29;57.75;101351.63;6184977;23;20040;-69
2022/09/02 04:38:23;;;;;;;13.80;3.90;;;;;;;15.32;57.89;101346.50;6158583;23;20331;-69
2022/09/02 04:40:49;;;;;;;24.52;5.13;;;;;;;15.27;57.90;101346.44;6184948;23;20423;-70
2022/09/02 04:43:14;;;;;;;12.27;3.88;;;;;;;15.30;57.58;101348.66;6185198;23;20037;-69
2022/09/02 04:45:41;;;;;;;15.73;3.90;;;;;;;15.29;58.08;101343.47;6184782;23;20085;-69
2022/09/02 04:48:07;;;;;;;25.58;4.30;;;;;;;15.26;58.21;101347.50;6185236;23;20008;-69
2022/09/02 04:50:32;;;;;;;18.73;4.10;;;;;;;15.23;58.17;101348.84;6183876;23;20020;-69
2022/09/02 04:52:58;;;;;;;13.23;4.20;;;;;;;15.30;58.08;101345.94;6159146;23;20005;-69
2022/09/02 04:55:24;;;;;;;13.90;4.60;;;;;;;15.29;58.36;101343.47;6184460;23;20047;-69
2022/09/02 04:57:49;;;;;;;15.75;5.03;;;;;;;15.32;58.67;101348.41;6159045;23;20013;-69
2022/09/02 05:00:14;;;;;;;20.77;5.07;;;;;;;15.27;58.18;101346.44;6184768;23;20008;-70
2022/09/02 05:02:40;;;;;;;17.23;5.00;;;;;;;15.27;58.41;101351.06;6181492;23;20320;-70
2022/09/02 05:05:06;;;;;;;21.08;5.25;;;;;;;15.29;58.71;101355.19;6185460;23;20474;-69
2022/09/02 05:07:34;;;;;;;15.63;5.25;;;;;;;15.31;58.63;101346.75;6184639;23;20009;-69
2022/09/02 05:09:59;;;;;;;18.73;5.15;;;;;;;15.35;58.46;101343.31;6184767;23;20087;-69
2022/09/02 05:12:27;;;;;;;18.08;5.05;;;;;;;15.39;58.54;101349.91;6158007;23;20025;-69
2022/09/02 05:14:55;;;;;;;14.50;5.70;;;;;;;15.38;58.83;101352.91;6185386;23;20005;-69
2022/09/02 05:17:21;;;;;;;17.48;6.00;;;;;;;15.47;58.22;101350.59;6158220;23;20012;-69
2022/09/02 05:19:47;;;;;;;16.58;5.90;;;;;;;15.50;58.15;101344.66;6185072;23;20427;-69
2022/09/02 05:22:12;;;;;;;14.90;6.45;;;;;;;15.50;58.04;101347.38;6184854;23;20008;-69
2022/09/02 05:24:37;;;;;;;13.82;5.82;;;;;;;15.57;58.16;101348.06;6184824;23;20051;-69
2022/09/02 05:27:03;;;;;;;14.45;6.22;;;;;;;15.58;58.13;101352.44;6184756;23;20009;-69
2022/09/02 05:29:28;;;;;;;15.15;5.78;;;;;;;15.55;58.39;101342.00;6158526;23;20005;-69
2022/09/02 05:31:54;;;;;;;13.43;6.72;;;;;;;15.60;58.42;101345.66;6184777;23;20327;-69
2022/09/02 05:34:19;;;;;;;16.20;6.72;;;;;;;15.68;57.81;101354.50;6184902;23;20013;-70
2022/09/02 05:36:44;;;;;;;16.73;6.32;;;;;;;15.70;58.18;101347.75;6184713;23;20453;-68
2022/09/02 05:39:10;;;;;;;17.83;6.50;;;;;;;15.70;57.96;101345.03;6184812;23;20005;-69
2022/09/02 05:41:35;;;;;;;20.48;6.15;;;;;;;15.76;58.31;101348.63;6183876;23;20312;-68
2022/09/02 05:44:02;;;;;;;14.68;6.10;;;;;;;15.74;58.23;101353.53;6183810;23;20478;-68
2022/09/02 05:46:28;;;;;;;15.10;6.20;;;;;;;15.75;57.97;101342.38;6184815;23;20005;-68
2022/09/02 05:49:16;;;;;;;15.27;6.28;;;;;;;15.81;57.97;101348.78;6184575;23;20001;-68
2022/09/02 05:51:45;;;;;;;13.15;6.07;;;;;;;15.82;58.57;101352.31;6184574;23;20305;-68
2022/09/02 05:54:16;;;;;;;19.95;6.40;;;;;;;15.87;57.85;101355.16;6183900;23;20024;-68
2022/09/02 05:56:43;;;;;;;16.55;6.63;;;;;;;15.87;58.51;101346.97;6184563;23;20007;-68
2022/09/02 05:59:09;;;;;;;18.73;7.15;;;;;;;15.86;58.08;101343.38;6184671;23;20005;-68
2022/09/02 06:01:35;;;;;;;19.73;7.20;;;;;;;15.92;58.24;101352.47;6180942;23;20085;-68
2022/09/02 06:04:01;;;;;;;16.85;6.80;;;;;;;15.95;58.44;101341.06;6183793;23;20358;-68
2022/09/02 06:06:30;;;;;;;17.92;7.25;;;;;;;16.03;58.51;101346.09;6184802;23;20084;-68
2022/09/02 06:08:55;;;;;;;24.85;7.70;;;;;;;16.07;58.02;101339.06;6184783;23;20311;-68
2022/09/02 06:11:21;;;;;;;18.25;7.55;;;;;;;16.09;58.10;101347.84;6184134;23;20005;-68
2022/09/02 06:13:47;;;;;;;18.77;7.55;;;;;;;16.12;58.62;101336.44;6184477;23;20005;-68
2022/09/02 06:16:15;;;;;;;22.20;8.38;;;;;;;16.13;58.71;101343.53;6184873;23;20080;-69
2022/09/02 06:18:41;;;;;;;20.45;8.77;;;;;;;16.20;58.22;101339.78;6183052;23;20040;-68
2022/09/02 06:21:06;;;;;;;20.52;9.05;;;;;;;16.22;58.18;101341.19;6184386;23;20450;-68
2022/09/02 06:23:37;;;;;;;23.00;9.20;;;;;;;16.25;58.33;101339.88;6183881;23;20009;-68
2022/09/02 06:26:03;;;;;;;25.92;10.65;;;;;;;16.30;58.61;101337.22;6184818;23;20028;-69
2022/09/02 06:28:28;;;;;;;28.55;10.55;;;;;;;16.34;58.06;101343.84;6184550;23;20419;-68
2022/09/02 06:30:54;;;;;;;25.45;9.65;;;;;;;16.36;58.20;101336.19;6184384;23;20035;-68
2022/09/02 06:33:19;;;;;;;33.85;10.98;;;;;;;16.46;57.54;101338.25;6184519;23;20028;-68
2022/09/02 06:35:45;;;;;;;29.10;11.63;;;;;;;16.48;57.88;101336.09;6157666;23;20339;-69
2022/09/02 06:38:12;;;;;;;25.90;11.18;;;;;;;16.53;57.26;101343.53;6184819;23;20005;-68
2022/09/02 06:40:46;;;;;;;31.00;12.93;;;;;;;16.57;57.22;101331.84;6183701;23;20079;-68
2022/09/02 06:43:11;;;;;;;29.77;12.90;;;;;;;16.61;57.27;101343.91;6184593;23;20015;-68
2022/09/02 06:45:41;;;;;;;36.63;12.90;;;;;;;16.63;57.88;101338.22;6157649;23;20084;-71
2022/09/02 06:48:06;;;;;;;30.65;13.30;;;;;;;16.69;57.71;101337.19;6183265;23;20335;-69
2022/09/02 06:50:32;;;;;;;42.10;13.40;;;;;;;16.71;57.21;101326.00;6184510;23;20025;-69
2022/09/02 06:52:57;;;;;;;29.45;13.77;;;;;;;16.75;57.02;101330.69;6183231;23;20033;-69
2022/09/02 06:55:23;;;;;;;35.00;13.90;;;;;;;16.77;57.15;101331.28;6183034;23;20001;-70
2022/09/02 06:57:48;;;;;;;34.78;13.80;;;;;;;16.83;57.51;101330.28;6184405;23;20004;-71
2022/09/02 07:00:15;;;;;;;39.20;14.77;;;;;;;16.88;57.47;101331.41;6184563;23;20012;-72
2022/09/02 07:02:41;;;;;;;34.63;14.85;;;;;;;16.92;56.98;101327.91;6181033;23;20012;-75
2022/09/02 07:05:13;;;;;;;47.45;15.55;;;;;;;16.98;57.04;101326.06;6183490;23;20358;-71
2022/09/02 07:07:41;;;;;;;33.35;15.27;;;;;;;17.05;56.72;101325.88;6183869;23;20482;-70
2022/09/02 07:10:10;;;;;;;34.28;15.45;;;;;;;17.05;57.06;101325.88;6157884;23;20450;-69
2022/09/02 07:12:39;;;;;;;38.05;16.85;;;;;;;17.11;56.48;101325.69;6184361;23;20005;-71
2022/09/02 07:15:05;;;;;;;35.20;15.77;;;;;;;17.20;56.49;101319.75;6185580;23;20515;-68
2022/09/02 07:17:31;;;;;;;33.50;15.82;;;;;;;17.26;56.41;101322.28;6185670;23;20009;-70
2022/09/02 07:19:59;;;;;;;37.97;16.02;;;;;;;17.31;56.77;101322.31;6186511;23;20020;-68
2022/09/02 07:22:26;;;;;;;38.90;16.10;;;;;;;17.35;56.69;101317.97;6186206;23;20009;-69
2022/09/02 07:24:51;;;;;;;37.17;15.35;;;;;;;17.41;56.42;101327.06;6186139;23;20093;-68
2022/09/02 07:27:19;;;;;;;37.33;16.30;;;;;;;17.45;56.63;101320.00;6185416;23;20033;-67
2022/09/02 07:29:44;;;;;;;34.97;15.40;;;;;;;17.51;56.86;101316.22;6159703;23;20005;-68
2022/09/02 07:32:10;;;;;;;41.10;16.25;;;;;;;17.54;56.77;101312.13;6186286;23;20477;-68
2022/09/02 07:34:35;;;;;;;39.28;15.10;;;;;;;17.60;56.80;101316.53;6158921;23;20001;-68
2022/09/02 07:37:00;;;;;;;32.22;15.52;;;;;;;17.63;55.80;101317.94;6186109;23;20019;-68
2022/09/02 07:39:26;;;;;;;35.15;16.00;;;;;;;17.65;55.31;101313.06;6185822;23;20029;-69
2022/09/02 07:41:51;;;;;;;34.20;16.15;;;;;;;17.70;56.25;101315.81;6185714;23;20096;-69
2022/09/02 07:44:19;;;;;;;30.40;14.95;;;;;;;17.74;55.46;101316.13;6185707;23;20055;-68
2022/09/02 07:46:44;;;;;;;31.67;15.77;;;;;;;17.77;55.84;101310.97;6185878;23;20077;-69
2022/09/02 07:49:11;;;;;;;36.88;15.82;;;;;;;17.80;55.32;101313.16;6186077;23;20029;-71
2022/09/02 07:51:39;;;;;;;31.13;15.80;;;;;;;17.84;56.21;101310.72;6185363;23;20009;-70
2022/09/02 07:54:06;;;;;;;33.50;14.93;;;;;;;17.87;56.44;101311.03;6158697;23;20001;-69
2022/09/02 07:56:32;;;;;;;31.30;14.88;;;;;;;17.91;55.94;101311.34;6158779;23;20434;-69
2022/09/02 07:58:57;;;;;;;34.55;14.77;;;;;;;17.96;55.87;101308.66;6184741;23;20008;-69
2022/09/02 08:01:22;;;;;;;38.20;14.77;;;;;;;18.01;55.57;101316.06;6182302;23;20442;-69
2022/09/02 08:03:49;;;;;;;36.58;14.45;;;;;;;18.03;54.90;101308.44;6158885;23;20355;-69
2022/09/02 08:06:14;;;;;;;30.75;14.93;;;;;;;18.09;55.20;101312.84;6185057;23;20058;-69
2022/09/02 08:08:41;;;;;;;32.58;15.88;;;;;;;18.12;55.01;101319.72;6185364;23;20410;-70
2022/09/02 08:11:07;;;;;;;35.35;15.52;;;;;;;18.15;55.43;101311.78;6185952;23;20028;-72
2022/09/02 08:13:34;;;;;;;30.55;14.85;;;;;;;18.21;54.65;101310.72;6184699;23;20355;-72
2022/09/02 08:16:01;;;;;;;33.95;15.10;;;;;;;18.24;55.49;101318.41;6159113;23;20020;-73
2022/09/02 08:18:26;;;;;;;33.15;14.35;;;;;;;18.31;55.59;101314.59;6185549;23;20005;-73
2022/09/02 08:20:52;;;;;;;30.33;14.70;;;;;;;18.33;55.33;101304.22;6185724;23;20011;-69
2022/09/02 08:23:17;;;;;;;37.10;16.15;;;;;;;18.36;54.60;101310.00;6185328;23;20009;-69
2022/09/02 08:25:44;;;;;;;38.65;15.32;;;;;;;18.40;54.95;101304.78;6185047;23;20012;-70
2022/09/02 08:28:10;;;;;;;39.50;14.82;;;;;;;18.47;55.25;101299.91;6185111;23;20012;-71
2022/09/02 08:30:35;;;;;;;32.58;14.35;;;;;;;18.52;54.33;101302.66;6184527;23;20076;-71
2022/09/02 08:33:00;;;;;;;36.20;14.68;;;;;;;18.59;54.67;101299.69;6184397;23;20429;-71
2022/09/02 08:35:26;;;;;;;36.45;14.63;;;;;;;18.62;54.43;101290.91;6185314;23;20005;-70
2022/09/02 08:37:51;;;;;;;34.25;13.82;;;;;;;18.68;54.98;101292.59;6185329;23;20014;-71
2022/09/02 08:40:21;;;;;;;33.03;13.98;;;;;;;18.73;54.68;101295.34;6185091;23;20423;-70
2022/09/02 08:42:49;;;;;;;38.08;14.70;;;;;;;18.81;53.93;101294.00;6158854;23;20327;-70
2022/09/02 08:45:37;;;;;;;28.73;13.23;;;;;;;18.84;54.37;101298.97;6184995;23;20063;-71
2022/09/02 08:48:26;;;;;;;32.35;12.88;;;;;;;18.97;54.74;101299.56;6183864;23;20064;-77
2022/09/02 08:50:57;;;;;;;29.00;13.18;;;;;;;19.00;54.28;101302.56;6184442;23;20372;-74
2022/09/02 08:53:50;;;;;;;31.52;13.70;;;;;;;19.06;54.66;101293.25;6185208;23;20096;-73
2022/09/02 08:56:19;;;;;;;27.38;13.57;;;;;;;19.09;54.24;101289.16;6185140;23;20012;-75
2022/09/02 08:58:55;;;;;;;29.52;13.55;;;;;;;19.17;54.31;101294.09;6184827;23;20037;-75
2022/09/02 09:01:32;;;;;;;27.92;12.10;;;;;;;19.24;54.09;101293.84;6182745;23;20326;-73
2022/09/02 09:04:19;;;;;;;34.58;12.98;;;;;;;19.28;54.39;101295.78;6184936;23;20067;-74
2022/09/02 09:06:58;;;;;;;31.80;11.88;;;;;;;19.32;53.77;101300.72;6184604;23;20030;-74
2022/09/02 09:09:48;;;;;;;25.75;11.88;;;;;;;19.37;54.13;101300.69;6185444;23;20044;-76
2022/09/02 09:12:38;;;;;;;29.10;12.52;;;;;;;19.42;54.24;101297.97;6184999;23;20072;-76
2022/09/02 09:15:37;;;;;;;26.92;11.70;;;;;;;19.49;53.99;101304.03;6158543;23;20013;-76
2022/09/02 09:18:07;;;;;;;21.90;10.30;;;;;;;19.54;54.16;101306.75;6184946;23;20001;-76
2022/09/02 09:20:37;;;;;;;23.90;10.80;;;;;;;19.58;54.25;101282.31;6184214;23;20535;-76
2022/09/02 09:23:26;;;;;;;21.83;9.15;;;;;;;19.65;53.84;101299.34;6183793;23;20040;-70
2022/09/02 09:25:59;;;;;;;20.77;8.32;;;;;;;19.71;53.60;101292.75;6183835;23;20450;-71
2022/09/02 09:28:25;;;;;;;19.27;7.75;;;;;;;19.74;53.61;101289.44;6184033;23;20012;-70
2022/09/02 09:30:50;;;;;;;22.55;8.40;;;;;;;19.80;53.65;101285.63;6184426;23;20028;-70
2022/09/02 09:33:20;;;;;;;16.00;7.43;;;;;;;19.93;54.05;101292.50;6185026;23;20132;-70
2022/09/02 09:35:55;;;;;;;17.83;7.45;;;;;;;20.00;53.38;101289.44;6183783;23;20440;-70
2022/09/02 09:38:31;;;;;;;14.25;7.07;;;;;;;20.09;52.87;101281.47;6182817;23;20001;-78
2022/09/02 09:41:19;;;;;;;18.48;5.93;;;;;;;20.18;53.29;101288.88;6184907;23;20059;-73
2022/09/02 09:43:44;;;;;;;11.00;4.90;;;;;;;20.29;52.60;101270.41;6184832;23;20555;-73
2022/09/02 09:46:33;;;;;;;13.77;4.82;;;;;;;20.39;52.74;101285.22;6184236;23;20032;-73
2022/09/02 09:48:58;;;;;;;10.02;4.32;;;;;;;20.49;52.08;101269.50;6184725;23;20008;-73
2022/09/02 09:51:23;;;;;;;14.15;4.28;;;;;;;20.59;52.14;101268.63;6184495;23;20009;-73
2022/09/02 09:53:49;;;;;;;11.35;3.90;;;;;;;20.66;52.38;101271.13;6183982;23;20032;-73
2022/09/02 09:56:15;;;;;;;9.40;3.47;;;;;;;20.75;50.94;101268.59;6184432;23;20008;-73
2022/09/02 09:58:40;;;;;;;7.67;3.20;;;;;;;20.86;51.86;101273.75;6183214;23;20497;-72
2022/09/02 10:01:21;;;;;;;9.27;3.20;;;;;;;20.96;51.50;101267.34;6154772;23;20686;-72
2022/09/02 10:03:52;;;;;;;9.43;2.95;;;;;;;21.05;50.60;101270.34;6184628;23;20232;-71
2022/09/02 10:06:23;;;;;;;9.63;2.50;;;;;;;21.24;50.81;101259.44;6183675;23;20001;-71
2022/09/02 10:09:00;;;;;;;5.68;2.30;;;;;;;21.36;49.29;101265.44;6184444;23;20016;-73
2022/09/02 10:11:28;;;;;;;5.30;2.38;;;;;;;21.53;49.38;101258.69;6184471;23;20324;-70
2022/09/02 10:14:02;;;;;;;3.83;1.98;;;;;;;21.60;49.18;101256.44;6184366;23;20027;-73
2022/09/02 10:16:56;;;;;;;7.18;2.28;;;;;;;21.73;48.62;101261.25;6182758;23;20095;-71
2022/09/02 10:19:51;;;;;;;13.25;2.17;;;;;;;21.86;48.00;101253.41;6184587;23;20001;-71
2022/09/02 10:22:32;;;;;;;10.27;1.90;;;;;;;22.01;47.89;101255.19;6184540;23;20007;-71
2022/09/02 10:25:00;;;;;;;;;;;;;;;22.08;48.75;101248.22;6184685;23;20012;-71
2022/09/02 10:28:06;;;;;;;4.95;2.13;;;;;;;22.23;47.15;101243.66;6184297;23;19904;-70
2022/09/02 10:31:16;;;;;;;2.92;2.00;;;;;;;22.30;46.84;101238.59;6161163;23;20009;-73
2022/09/02 10:33:56;;;;;;;8.40;2.20;;;;;;;22.40;45.49;101238.47;6167534;23;20017;-71
2022/09/02 10:36:36;;;;;;;5.07;2.00;;;;;;;22.50;46.41;101240.31;6183349;23;20382;-70
2022/09/02 10:39:35;;;;;;;5.50;1.90;;;;;;;22.55;45.64;101239.41;6184355;23;20004;-70
2022/09/02 10:42:15;;;;;;;8.80;2.28;;;;;;;22.72;45.19;101234.22;6184444;23;20001;-70
2022/09/02 10:45:07;;;;;;;5.53;1.80;;;;;;;22.73;45.61;101235.03;6184069;23;20009;-70
2022/09/02 10:47:36;;;;;;;6.00;1.92;;;;;;;22.80;43.88;101236.28;6183881;23;20001;-71
2022/09/02 10:50:16;;;;;;;9.02;2.25;;;;;;;22.94;44.41;101225.31;6186441;23;20062;-71
2022/09/02 10:53:03;;;;;;;8.93;2.60;;;;;;;23.06;43.57;101227.63;6186773;23;20063;-71
2022/09/02 10:55:41;;;;;;;3.85;1.90;;;;;;;23.18;42.09;101233.50;6186710;23;20411;-72
2022/09/02 10:58:13;;;;;;;4.68;1.92;;;;;;;23.35;41.44;101229.38;6159805;23;20008;-71
2022/09/02 11:00:43;;;;;;;3.88;1.90;;;;;;;23.42;41.29;101213.25;6182227;23;20012;-72
2022/09/02 11:03:20;;;;;;;9.90;2.20;;;;;;;23.51;41.77;101205.91;6186112;23;20009;-72
2022/09/02 11:05:46;;;;;;;5.03;2.00;;;;;;;23.59;40.39;101217.38;6186270;23;20415;-72
2022/09/02 11:08:19;;;;;;;7.13;2.17;;;;;;;23.57;40.50;101214.06;6185336;23;20005;-73
2022/09/02 11:10:57;;;;;;;5.20;1.92;;;;;;;23.69;40.76;101208.91;6186310;23;20023;-72
2022/09/02 11:13:37;;;;;;;2.05;1.60;;;;;;;23.76;40.60;101194.66;6185742;23;20008;-72
2022/09/02 11:16:13;;;;;;;3.65;1.80;;;;;;;23.85;40.19;101192.88;6184905;23;20008;-73
2022/09/02 11:19:01;;;;;;;4.80;1.92;;;;;;;24.04;40.75;101196.34;6186150;23;20009;-71
2022/09/02 11:21:41;;;;;;;3.83;1.90;;;;;;;24.06;39.60;101187.75;6186265;23;20016;-72
2022/09/02 11:24:18;;;;;;;9.65;1.70;;;;;;;24.19;40.04;101180.56;6184051;23;20033;-72
2022/09/02 11:27:13;;;;;;;2.80;1.67;;;;;;;24.31;39.61;101175.31;6185682;23;20027;-73
2022/09/02 11:30:01;;;;;;;6.00;1.75;;;;;;;24.38;37.64;101172.13;6164197;23;20005;-72